<?xml version="1.0" encoding="UTF-8" standalone="no" ?>
<gpx xmlns="http://www.topografix.com/GPX/1/1" xmlns:xsi="http://www.w3.org/2001/XMLSchema-instance" xsi:schemaLocation="http://www.topografix.com/GPX/1/1 http://www.topografix.com/GPX/1/1/gpx.xsd" version="1.1" creator="VisuGPX - https://www.visugpx.com">
  <metadata>
    <name>Thines - Les moulins-  La blacherette</name>
    <desc><![CDATA[Toujours des paysages sublimes, avec joli moulin sur la rivière de Thines, en plein pays cévenol.]]></desc>
  </metadata>
  <trk>
    <name><![CDATA[2016-12-09 09:42]]></name>
    <desc><![CDATA[<p>Heure de départ: 12/09/2016 09:42</p><p>Heure d'arrivée: 12/09/2016 16:09</p><p>Distance: 11,8 km (06:27)</p><p>Temps déplacement: 02:53</p><p>Vitesse moyenne: 1,82 km/h</p><p>Vitesse moyenne mouv.: 4,07 km/h</p><p>Vitesse Max.: 11,76km/h</p><p>Altitude minimale: 372 m</p><p>Altitude maximale: 783 m</p><p>Vitesse de montée: 169,1 m/h</p><p>Vitesse de descente: -297,8 m/h</p><p>Gain d'altitude: 676 m</p><p>Perte d'altitude: -680 m</p><p>Temps de montée: 04:00</p><p>Temps de descente: 02:17</p><hr align="center" width="480" style="height: 2px; width: 517px"/>]]></desc>
    <trkseg>
      <trkpt lat="44.49419" lon="4.04441">
        <ele>485.85</ele>
        <time>2016-12-09T08:42:33Z</time>
      </trkpt>
      <trkpt lat="44.49408" lon="4.04462">
        <ele>487.69</ele>
        <time>2016-12-09T08:43:09Z</time>
      </trkpt>
      <trkpt lat="44.49399" lon="4.04485">
        <ele>483.73</ele>
        <time>2016-12-09T08:43:32Z</time>
      </trkpt>
      <trkpt lat="44.49396" lon="4.04512">
        <ele>483.88</ele>
        <time>2016-12-09T08:43:44Z</time>
      </trkpt>
      <trkpt lat="44.49379" lon="4.04521">
        <ele>481.7</ele>
        <time>2016-12-09T08:43:57Z</time>
      </trkpt>
      <trkpt lat="44.49363" lon="4.04533">
        <ele>483.76</ele>
        <time>2016-12-09T08:44:12Z</time>
      </trkpt>
      <trkpt lat="44.49349" lon="4.04552">
        <ele>489.52</ele>
        <time>2016-12-09T08:44:32Z</time>
      </trkpt>
      <trkpt lat="44.49351" lon="4.04579">
        <ele>484.9</ele>
        <time>2016-12-09T08:44:56Z</time>
      </trkpt>
      <trkpt lat="44.4936" lon="4.04604">
        <ele>491.28</ele>
        <time>2016-12-09T08:45:09Z</time>
      </trkpt>
      <trkpt lat="44.49375" lon="4.04617">
        <ele>494.73</ele>
        <time>2016-12-09T08:45:25Z</time>
      </trkpt>
      <trkpt lat="44.49386" lon="4.04638">
        <ele>488.91</ele>
        <time>2016-12-09T08:46:13Z</time>
      </trkpt>
      <trkpt lat="44.49397" lon="4.0466">
        <ele>493.59</ele>
        <time>2016-12-09T08:46:20Z</time>
      </trkpt>
      <trkpt lat="44.49404" lon="4.04684">
        <ele>491.93</ele>
        <time>2016-12-09T08:46:35Z</time>
      </trkpt>
      <trkpt lat="44.49413" lon="4.04707">
        <ele>493.73</ele>
        <time>2016-12-09T08:46:52Z</time>
      </trkpt>
      <trkpt lat="44.49416" lon="4.04733">
        <ele>489.88</ele>
        <time>2016-12-09T08:47:10Z</time>
      </trkpt>
      <trkpt lat="44.49421" lon="4.04758">
        <ele>486.89</ele>
        <time>2016-12-09T08:47:29Z</time>
      </trkpt>
      <trkpt lat="44.49415" lon="4.04784">
        <ele>490.74</ele>
        <time>2016-12-09T08:47:47Z</time>
      </trkpt>
      <trkpt lat="44.49409" lon="4.04808">
        <ele>486.66</ele>
        <time>2016-12-09T08:48:04Z</time>
      </trkpt>
      <trkpt lat="44.49412" lon="4.04834">
        <ele>485.48</ele>
        <time>2016-12-09T08:48:20Z</time>
      </trkpt>
      <trkpt lat="44.49405" lon="4.04858">
        <ele>490.89</ele>
        <time>2016-12-09T08:48:39Z</time>
      </trkpt>
      <trkpt lat="44.49408" lon="4.04884">
        <ele>490.69</ele>
        <time>2016-12-09T08:49:00Z</time>
      </trkpt>
      <trkpt lat="44.49413" lon="4.04911">
        <ele>486.69</ele>
        <time>2016-12-09T08:49:37Z</time>
      </trkpt>
      <trkpt lat="44.49406" lon="4.04935">
        <ele>488.9</ele>
        <time>2016-12-09T08:50:19Z</time>
      </trkpt>
      <trkpt lat="44.49388" lon="4.04927">
        <ele>487.73</ele>
        <time>2016-12-09T08:50:38Z</time>
      </trkpt>
      <trkpt lat="44.49372" lon="4.04941">
        <ele>490.9</ele>
        <time>2016-12-09T08:51:15Z</time>
      </trkpt>
      <trkpt lat="44.49381" lon="4.04963">
        <ele>492.51</ele>
        <time>2016-12-09T08:51:50Z</time>
      </trkpt>
      <trkpt lat="44.49382" lon="4.04989">
        <ele>492.65</ele>
        <time>2016-12-09T08:52:31Z</time>
      </trkpt>
      <trkpt lat="44.49365" lon="4.05">
        <ele>493.86</ele>
        <time>2016-12-09T08:55:16Z</time>
      </trkpt>
      <trkpt lat="44.49347" lon="4.05006">
        <ele>496.06</ele>
        <time>2016-12-09T08:55:25Z</time>
      </trkpt>
      <trkpt lat="44.49329" lon="4.05003">
        <ele>499.65</ele>
        <time>2016-12-09T08:55:38Z</time>
      </trkpt>
      <trkpt lat="44.49315" lon="4.04987">
        <ele>511.32</ele>
        <time>2016-12-09T08:56:04Z</time>
      </trkpt>
      <trkpt lat="44.49296" lon="4.04982">
        <ele>505.69</ele>
        <time>2016-12-09T08:56:17Z</time>
      </trkpt>
      <trkpt lat="44.49278" lon="4.04982">
        <ele>505.54</ele>
        <time>2016-12-09T08:56:31Z</time>
      </trkpt>
      <trkpt lat="44.4926" lon="4.04979">
        <ele>503.89</ele>
        <time>2016-12-09T08:56:59Z</time>
      </trkpt>
      <trkpt lat="44.49244" lon="4.04994">
        <ele>498.65</ele>
        <time>2016-12-09T08:57:17Z</time>
      </trkpt>
      <trkpt lat="44.49227" lon="4.05006">
        <ele>493.93</ele>
        <time>2016-12-09T08:57:31Z</time>
      </trkpt>
      <trkpt lat="44.4921" lon="4.05015">
        <ele>492.64</ele>
        <time>2016-12-09T08:57:48Z</time>
      </trkpt>
      <trkpt lat="44.49192" lon="4.05019">
        <ele>482.69</ele>
        <time>2016-12-09T08:59:21Z</time>
      </trkpt>
      <trkpt lat="44.49185" lon="4.05043">
        <ele>475.7</ele>
        <time>2016-12-09T08:59:42Z</time>
      </trkpt>
      <trkpt lat="44.49181" lon="4.05068">
        <ele>477.09</ele>
        <time>2016-12-09T09:00:12Z</time>
      </trkpt>
      <trkpt lat="44.49172" lon="4.0509">
        <ele>475.9</ele>
        <time>2016-12-09T09:00:32Z</time>
      </trkpt>
      <trkpt lat="44.49178" lon="4.05115">
        <ele>476.5</ele>
        <time>2016-12-09T09:00:57Z</time>
      </trkpt>
      <trkpt lat="44.49173" lon="4.0514">
        <ele>475.49</ele>
        <time>2016-12-09T09:02:17Z</time>
      </trkpt>
      <trkpt lat="44.49163" lon="4.05162">
        <ele>473.02</ele>
        <time>2016-12-09T09:03:04Z</time>
      </trkpt>
      <trkpt lat="44.49144" lon="4.05166">
        <ele>438.96</ele>
        <time>2016-12-09T09:04:28Z</time>
      </trkpt>
      <trkpt lat="44.49128" lon="4.05179">
        <ele>444.45</ele>
        <time>2016-12-09T09:04:56Z</time>
      </trkpt>
      <trkpt lat="44.49132" lon="4.05204">
        <ele>451.14</ele>
        <time>2016-12-09T09:05:27Z</time>
      </trkpt>
      <trkpt lat="44.49114" lon="4.0521">
        <ele>444.54</ele>
        <time>2016-12-09T09:07:43Z</time>
      </trkpt>
      <trkpt lat="44.49098" lon="4.05197">
        <ele>432.84</ele>
        <time>2016-12-09T09:08:03Z</time>
      </trkpt>
      <trkpt lat="44.4908" lon="4.0519">
        <ele>430.74</ele>
        <time>2016-12-09T09:08:44Z</time>
      </trkpt>
      <trkpt lat="44.49062" lon="4.05176">
        <ele>418.72</ele>
        <time>2016-12-09T09:09:11Z</time>
      </trkpt>
      <trkpt lat="44.49046" lon="4.05163">
        <ele>418.7</ele>
        <time>2016-12-09T09:10:43Z</time>
      </trkpt>
      <trkpt lat="44.49063" lon="4.05175">
        <ele>416.88</ele>
        <time>2016-12-09T09:13:22Z</time>
      </trkpt>
      <trkpt lat="44.49079" lon="4.05187">
        <ele>423.68</ele>
        <time>2016-12-09T09:13:49Z</time>
      </trkpt>
      <trkpt lat="44.49091" lon="4.05207">
        <ele>437.48</ele>
        <time>2016-12-09T09:14:11Z</time>
      </trkpt>
      <trkpt lat="44.49109" lon="4.05205">
        <ele>438.9</ele>
        <time>2016-12-09T09:14:38Z</time>
      </trkpt>
      <trkpt lat="44.49127" lon="4.05211">
        <ele>431.22</ele>
        <time>2016-12-09T09:15:01Z</time>
      </trkpt>
      <trkpt lat="44.49126" lon="4.05237">
        <ele>423.88</ele>
        <time>2016-12-09T09:15:26Z</time>
      </trkpt>
      <trkpt lat="44.49109" lon="4.05246">
        <ele>413.94</ele>
        <time>2016-12-09T09:16:13Z</time>
      </trkpt>
      <trkpt lat="44.49094" lon="4.05265">
        <ele>417.56</ele>
        <time>2016-12-09T09:16:23Z</time>
      </trkpt>
      <trkpt lat="44.49079" lon="4.05279">
        <ele>421.5</ele>
        <time>2016-12-09T09:16:39Z</time>
      </trkpt>
      <trkpt lat="44.49068" lon="4.053">
        <ele>423.89</ele>
        <time>2016-12-09T09:17:38Z</time>
      </trkpt>
      <trkpt lat="44.49055" lon="4.05319">
        <ele>420.8</ele>
        <time>2016-12-09T09:17:45Z</time>
      </trkpt>
      <trkpt lat="44.49037" lon="4.05327">
        <ele>428.21</ele>
        <time>2016-12-09T09:17:54Z</time>
      </trkpt>
      <trkpt lat="44.4902" lon="4.05339">
        <ele>431.38</ele>
        <time>2016-12-09T09:19:19Z</time>
      </trkpt>
      <trkpt lat="44.49009" lon="4.05359">
        <ele>428.89</ele>
        <time>2016-12-09T09:19:28Z</time>
      </trkpt>
      <trkpt lat="44.48994" lon="4.05376">
        <ele>433.49</ele>
        <time>2016-12-09T09:19:48Z</time>
      </trkpt>
      <trkpt lat="44.48976" lon="4.05374">
        <ele>440.51</ele>
        <time>2016-12-09T09:20:14Z</time>
      </trkpt>
      <trkpt lat="44.4896" lon="4.05387">
        <ele>446.83</ele>
        <time>2016-12-09T09:20:42Z</time>
      </trkpt>
      <trkpt lat="44.48941" lon="4.05383">
        <ele>438.26</ele>
        <time>2016-12-09T09:21:45Z</time>
      </trkpt>
      <trkpt lat="44.48923" lon="4.05384">
        <ele>420.03</ele>
        <time>2016-12-09T09:22:06Z</time>
      </trkpt>
      <trkpt lat="44.48905" lon="4.05382">
        <ele>419.15</ele>
        <time>2016-12-09T09:22:28Z</time>
      </trkpt>
      <trkpt lat="44.48886" lon="4.0538">
        <ele>418.56</ele>
        <time>2016-12-09T09:23:35Z</time>
      </trkpt>
      <trkpt lat="44.48869" lon="4.05375">
        <ele>411.74</ele>
        <time>2016-12-09T09:23:58Z</time>
      </trkpt>
      <trkpt lat="44.48853" lon="4.05389">
        <ele>410.7</ele>
        <time>2016-12-09T09:24:45Z</time>
      </trkpt>
      <trkpt lat="44.48836" lon="4.054">
        <ele>406.61</ele>
        <time>2016-12-09T09:24:58Z</time>
      </trkpt>
      <trkpt lat="44.48817" lon="4.05405">
        <ele>403.52</ele>
        <time>2016-12-09T09:25:36Z</time>
      </trkpt>
      <trkpt lat="44.48799" lon="4.05411">
        <ele>395.75</ele>
        <time>2016-12-09T09:25:43Z</time>
      </trkpt>
      <trkpt lat="44.48807" lon="4.05434">
        <ele>397.94</ele>
        <time>2016-12-09T09:26:31Z</time>
      </trkpt>
      <trkpt lat="44.48794" lon="4.05452">
        <ele>399.49</ele>
        <time>2016-12-09T09:29:24Z</time>
      </trkpt>
      <trkpt lat="44.48776" lon="4.05458">
        <ele>400.85</ele>
        <time>2016-12-09T09:29:37Z</time>
      </trkpt>
      <trkpt lat="44.48757" lon="4.05453">
        <ele>406.53</ele>
        <time>2016-12-09T09:30:03Z</time>
      </trkpt>
      <trkpt lat="44.48743" lon="4.05468">
        <ele>401.9</ele>
        <time>2016-12-09T09:30:51Z</time>
      </trkpt>
      <trkpt lat="44.48725" lon="4.05467">
        <ele>396.28</ele>
        <time>2016-12-09T09:31:21Z</time>
      </trkpt>
      <trkpt lat="44.48708" lon="4.05478">
        <ele>398.64</ele>
        <time>2016-12-09T09:31:40Z</time>
      </trkpt>
      <trkpt lat="44.4869" lon="4.05475">
        <ele>399.46</ele>
        <time>2016-12-09T09:32:00Z</time>
      </trkpt>
      <trkpt lat="44.48673" lon="4.05486">
        <ele>406.85</ele>
        <time>2016-12-09T09:32:23Z</time>
      </trkpt>
      <trkpt lat="44.48665" lon="4.05509">
        <ele>411.88</ele>
        <time>2016-12-09T09:32:54Z</time>
      </trkpt>
      <trkpt lat="44.48647" lon="4.05516">
        <ele>410.51</ele>
        <time>2016-12-09T09:33:58Z</time>
      </trkpt>
      <trkpt lat="44.48631" lon="4.05531">
        <ele>413.64</ele>
        <time>2016-12-09T09:34:13Z</time>
      </trkpt>
      <trkpt lat="44.48614" lon="4.05539">
        <ele>414.53</ele>
        <time>2016-12-09T09:34:30Z</time>
      </trkpt>
      <trkpt lat="44.48597" lon="4.05531">
        <ele>418.65</ele>
        <time>2016-12-09T09:34:59Z</time>
      </trkpt>
      <trkpt lat="44.48581" lon="4.05544">
        <ele>420.49</ele>
        <time>2016-12-09T09:35:26Z</time>
      </trkpt>
      <trkpt lat="44.48563" lon="4.05539">
        <ele>424.5</ele>
        <time>2016-12-09T09:36:20Z</time>
      </trkpt>
      <trkpt lat="44.48545" lon="4.05531">
        <ele>420.28</ele>
        <time>2016-12-09T09:36:29Z</time>
      </trkpt>
      <trkpt lat="44.48531" lon="4.05546">
        <ele>415.84</ele>
        <time>2016-12-09T09:37:04Z</time>
      </trkpt>
      <trkpt lat="44.48513" lon="4.05549">
        <ele>416.57</ele>
        <time>2016-12-09T09:37:26Z</time>
      </trkpt>
      <trkpt lat="44.48496" lon="4.05559">
        <ele>417.65</ele>
        <time>2016-12-09T09:37:45Z</time>
      </trkpt>
      <trkpt lat="44.48479" lon="4.05572">
        <ele>421.12</ele>
        <time>2016-12-09T09:38:29Z</time>
      </trkpt>
      <trkpt lat="44.48461" lon="4.05567">
        <ele>421.73</ele>
        <time>2016-12-09T09:38:47Z</time>
      </trkpt>
      <trkpt lat="44.48444" lon="4.05577">
        <ele>415.81</ele>
        <time>2016-12-09T09:40:59Z</time>
      </trkpt>
      <trkpt lat="44.48431" lon="4.05594">
        <ele>412.85</ele>
        <time>2016-12-09T09:41:30Z</time>
      </trkpt>
      <trkpt lat="44.48417" lon="4.0561">
        <ele>407.98</ele>
        <time>2016-12-09T09:42:14Z</time>
      </trkpt>
      <trkpt lat="44.48399" lon="4.05616">
        <ele>404.73</ele>
        <time>2016-12-09T09:42:49Z</time>
      </trkpt>
      <trkpt lat="44.4838" lon="4.05617">
        <ele>402.93</ele>
        <time>2016-12-09T09:43:12Z</time>
      </trkpt>
      <trkpt lat="44.48362" lon="4.05612">
        <ele>398.06</ele>
        <time>2016-12-09T09:43:49Z</time>
      </trkpt>
      <trkpt lat="44.48366" lon="4.05637">
        <ele>394.67</ele>
        <time>2016-12-09T09:45:39Z</time>
      </trkpt>
      <trkpt lat="44.48379" lon="4.05656">
        <ele>394.82</ele>
        <time>2016-12-09T09:46:29Z</time>
      </trkpt>
      <trkpt lat="44.48364" lon="4.05671">
        <ele>384.65</ele>
        <time>2016-12-09T09:47:20Z</time>
      </trkpt>
      <trkpt lat="44.48346" lon="4.0567">
        <ele>374.88</ele>
        <time>2016-12-09T09:49:58Z</time>
      </trkpt>
      <trkpt lat="44.48329" lon="4.0568">
        <ele>372.93</ele>
        <time>2016-12-09T09:51:05Z</time>
      </trkpt>
      <trkpt lat="44.48311" lon="4.05689">
        <ele>372.85</ele>
        <time>2016-12-09T09:51:23Z</time>
      </trkpt>
      <trkpt lat="44.48293" lon="4.05688">
        <ele>378.63</ele>
        <time>2016-12-09T09:52:03Z</time>
      </trkpt>
      <trkpt lat="44.48275" lon="4.05685">
        <ele>384.49</ele>
        <time>2016-12-09T09:52:45Z</time>
      </trkpt>
      <trkpt lat="44.48262" lon="4.05668">
        <ele>389.85</ele>
        <time>2016-12-09T09:53:18Z</time>
      </trkpt>
      <trkpt lat="44.48262" lon="4.05642">
        <ele>384.58</ele>
        <time>2016-12-09T09:53:45Z</time>
      </trkpt>
      <trkpt lat="44.48252" lon="4.05622">
        <ele>388.61</ele>
        <time>2016-12-09T09:54:07Z</time>
      </trkpt>
      <trkpt lat="44.48242" lon="4.056">
        <ele>396.9</ele>
        <time>2016-12-09T09:55:06Z</time>
      </trkpt>
      <trkpt lat="44.48224" lon="4.05604">
        <ele>401.29</ele>
        <time>2016-12-09T09:56:30Z</time>
      </trkpt>
      <trkpt lat="44.48207" lon="4.05593">
        <ele>405.29</ele>
        <time>2016-12-09T09:56:50Z</time>
      </trkpt>
      <trkpt lat="44.48188" lon="4.05594">
        <ele>414.67</ele>
        <time>2016-12-09T10:04:06Z</time>
      </trkpt>
      <trkpt lat="44.48171" lon="4.05605">
        <ele>415.45</ele>
        <time>2016-12-09T10:04:19Z</time>
      </trkpt>
      <trkpt lat="44.48157" lon="4.05624">
        <ele>413.59</ele>
        <time>2016-12-09T10:04:41Z</time>
      </trkpt>
      <trkpt lat="44.48142" lon="4.05637">
        <ele>420.3</ele>
        <time>2016-12-09T10:04:58Z</time>
      </trkpt>
      <trkpt lat="44.48125" lon="4.05649">
        <ele>420.69</ele>
        <time>2016-12-09T10:05:20Z</time>
      </trkpt>
      <trkpt lat="44.48109" lon="4.05661">
        <ele>413.9</ele>
        <time>2016-12-09T10:05:35Z</time>
      </trkpt>
      <trkpt lat="44.48092" lon="4.05672">
        <ele>419.47</ele>
        <time>2016-12-09T10:05:57Z</time>
      </trkpt>
      <trkpt lat="44.48079" lon="4.05689">
        <ele>421.52</ele>
        <time>2016-12-09T10:06:13Z</time>
      </trkpt>
      <trkpt lat="44.48063" lon="4.05701">
        <ele>423.73</ele>
        <time>2016-12-09T10:06:30Z</time>
      </trkpt>
      <trkpt lat="44.48048" lon="4.05718">
        <ele>426.64</ele>
        <time>2016-12-09T10:06:48Z</time>
      </trkpt>
      <trkpt lat="44.48036" lon="4.05736">
        <ele>424.72</ele>
        <time>2016-12-09T10:07:12Z</time>
      </trkpt>
      <trkpt lat="44.48053" lon="4.05724">
        <ele>432.65</ele>
        <time>2016-12-09T10:07:36Z</time>
      </trkpt>
      <trkpt lat="44.48069" lon="4.05712">
        <ele>435.26</ele>
        <time>2016-12-09T10:07:56Z</time>
      </trkpt>
      <trkpt lat="44.48061" lon="4.05734">
        <ele>440.69</ele>
        <time>2016-12-09T10:08:43Z</time>
      </trkpt>
      <trkpt lat="44.48078" lon="4.05744">
        <ele>441.69</ele>
        <time>2016-12-09T10:09:48Z</time>
      </trkpt>
      <trkpt lat="44.48096" lon="4.05739">
        <ele>447.46</ele>
        <time>2016-12-09T10:10:22Z</time>
      </trkpt>
      <trkpt lat="44.48114" lon="4.05736">
        <ele>452.69</ele>
        <time>2016-12-09T10:10:57Z</time>
      </trkpt>
      <trkpt lat="44.48133" lon="4.05732">
        <ele>455.65</ele>
        <time>2016-12-09T10:11:28Z</time>
      </trkpt>
      <trkpt lat="44.48151" lon="4.05736">
        <ele>458.68</ele>
        <time>2016-12-09T10:11:48Z</time>
      </trkpt>
      <trkpt lat="44.48166" lon="4.0575">
        <ele>456.69</ele>
        <time>2016-12-09T10:12:13Z</time>
      </trkpt>
      <trkpt lat="44.48152" lon="4.05767">
        <ele>472.49</ele>
        <time>2016-12-09T10:15:10Z</time>
      </trkpt>
      <trkpt lat="44.48138" lon="4.05784">
        <ele>477.53</ele>
        <time>2016-12-09T10:15:41Z</time>
      </trkpt>
      <trkpt lat="44.48124" lon="4.05802">
        <ele>472.52</ele>
        <time>2016-12-09T10:16:01Z</time>
      </trkpt>
      <trkpt lat="44.4811" lon="4.05819">
        <ele>476.49</ele>
        <time>2016-12-09T10:16:32Z</time>
      </trkpt>
      <trkpt lat="44.48128" lon="4.05821">
        <ele>486.9</ele>
        <time>2016-12-09T10:17:21Z</time>
      </trkpt>
      <trkpt lat="44.48146" lon="4.05822">
        <ele>483.72</ele>
        <time>2016-12-09T10:17:47Z</time>
      </trkpt>
      <trkpt lat="44.48138" lon="4.05846">
        <ele>494.93</ele>
        <time>2016-12-09T10:19:18Z</time>
      </trkpt>
      <trkpt lat="44.48123" lon="4.05862">
        <ele>498.68</ele>
        <time>2016-12-09T10:19:42Z</time>
      </trkpt>
      <trkpt lat="44.48107" lon="4.05874">
        <ele>498.6</ele>
        <time>2016-12-09T10:20:11Z</time>
      </trkpt>
      <trkpt lat="44.48126" lon="4.05881">
        <ele>508.09</ele>
        <time>2016-12-09T10:21:14Z</time>
      </trkpt>
      <trkpt lat="44.48116" lon="4.05903">
        <ele>511.96</ele>
        <time>2016-12-09T10:22:17Z</time>
      </trkpt>
      <trkpt lat="44.48101" lon="4.05916">
        <ele>515.89</ele>
        <time>2016-12-09T10:22:39Z</time>
      </trkpt>
      <trkpt lat="44.48119" lon="4.05918">
        <ele>527.65</ele>
        <time>2016-12-09T10:23:42Z</time>
      </trkpt>
      <trkpt lat="44.48114" lon="4.05943">
        <ele>523.93</ele>
        <time>2016-12-09T10:24:31Z</time>
      </trkpt>
      <trkpt lat="44.48101" lon="4.0596">
        <ele>527.78</ele>
        <time>2016-12-09T10:24:59Z</time>
      </trkpt>
      <trkpt lat="44.48119" lon="4.0596">
        <ele>526.7</ele>
        <time>2016-12-09T10:25:38Z</time>
      </trkpt>
      <trkpt lat="44.48121" lon="4.05986">
        <ele>532.1</ele>
        <time>2016-12-09T10:26:18Z</time>
      </trkpt>
      <trkpt lat="44.48117" lon="4.06011">
        <ele>535.94</ele>
        <time>2016-12-09T10:26:41Z</time>
      </trkpt>
      <trkpt lat="44.48101" lon="4.06026">
        <ele>539.42</ele>
        <time>2016-12-09T10:27:25Z</time>
      </trkpt>
      <trkpt lat="44.48089" lon="4.06046">
        <ele>543.88</ele>
        <time>2016-12-09T10:27:46Z</time>
      </trkpt>
      <trkpt lat="44.48082" lon="4.06071">
        <ele>544.09</ele>
        <time>2016-12-09T10:30:24Z</time>
      </trkpt>
      <trkpt lat="44.48066" lon="4.06059">
        <ele>554.93</ele>
        <time>2016-12-09T10:31:16Z</time>
      </trkpt>
      <trkpt lat="44.48049" lon="4.06066">
        <ele>556.7</ele>
        <time>2016-12-09T10:32:10Z</time>
      </trkpt>
      <trkpt lat="44.4803" lon="4.06067">
        <ele>558.68</ele>
        <time>2016-12-09T10:33:01Z</time>
      </trkpt>
      <trkpt lat="44.48013" lon="4.06077">
        <ele>562.9</ele>
        <time>2016-12-09T10:33:22Z</time>
      </trkpt>
      <trkpt lat="44.47997" lon="4.06089">
        <ele>567.73</ele>
        <time>2016-12-09T10:33:43Z</time>
      </trkpt>
      <trkpt lat="44.47986" lon="4.06109">
        <ele>580.9</ele>
        <time>2016-12-09T10:34:50Z</time>
      </trkpt>
      <trkpt lat="44.47974" lon="4.06129">
        <ele>581.73</ele>
        <time>2016-12-09T10:35:28Z</time>
      </trkpt>
      <trkpt lat="44.47963" lon="4.06148">
        <ele>587.49</ele>
        <time>2016-12-09T10:37:02Z</time>
      </trkpt>
      <trkpt lat="44.47981" lon="4.06143">
        <ele>594.7</ele>
        <time>2016-12-09T10:44:00Z</time>
      </trkpt>
      <trkpt lat="44.47998" lon="4.06135">
        <ele>592.77</ele>
        <time>2016-12-09T10:44:40Z</time>
      </trkpt>
      <trkpt lat="44.48017" lon="4.0613">
        <ele>594.64</ele>
        <time>2016-12-09T10:45:07Z</time>
      </trkpt>
      <trkpt lat="44.48034" lon="4.06139">
        <ele>592.13</ele>
        <time>2016-12-09T10:45:28Z</time>
      </trkpt>
      <trkpt lat="44.48035" lon="4.06165">
        <ele>603.46</ele>
        <time>2016-12-09T10:49:11Z</time>
      </trkpt>
      <trkpt lat="44.48017" lon="4.06169">
        <ele>606.73</ele>
        <time>2016-12-09T10:50:00Z</time>
      </trkpt>
      <trkpt lat="44.48" lon="4.06176">
        <ele>610.48</ele>
        <time>2016-12-09T10:50:26Z</time>
      </trkpt>
      <trkpt lat="44.48016" lon="4.06187">
        <ele>615.5</ele>
        <time>2016-12-09T10:51:22Z</time>
      </trkpt>
      <trkpt lat="44.48003" lon="4.06205">
        <ele>623.72</ele>
        <time>2016-12-09T10:51:56Z</time>
      </trkpt>
      <trkpt lat="44.47991" lon="4.06225">
        <ele>625.69</ele>
        <time>2016-12-09T10:52:32Z</time>
      </trkpt>
      <trkpt lat="44.47973" lon="4.06231">
        <ele>630.49</ele>
        <time>2016-12-09T10:52:59Z</time>
      </trkpt>
      <trkpt lat="44.47958" lon="4.06245">
        <ele>634.69</ele>
        <time>2016-12-09T10:54:19Z</time>
      </trkpt>
      <trkpt lat="44.47941" lon="4.06257">
        <ele>637.45</ele>
        <time>2016-12-09T10:55:14Z</time>
      </trkpt>
      <trkpt lat="44.47958" lon="4.06267">
        <ele>643.53</ele>
        <time>2016-12-09T10:56:59Z</time>
      </trkpt>
      <trkpt lat="44.4795" lon="4.0629">
        <ele>646.49</ele>
        <time>2016-12-09T10:58:47Z</time>
      </trkpt>
      <trkpt lat="44.47936" lon="4.06308">
        <ele>645.69</ele>
        <time>2016-12-09T10:59:15Z</time>
      </trkpt>
      <trkpt lat="44.47923" lon="4.06324">
        <ele>656.45</ele>
        <time>2016-12-09T10:59:39Z</time>
      </trkpt>
      <trkpt lat="44.47911" lon="4.06344">
        <ele>658.1</ele>
        <time>2016-12-09T11:00:08Z</time>
      </trkpt>
      <trkpt lat="44.47899" lon="4.06363">
        <ele>659.29</ele>
        <time>2016-12-09T11:00:35Z</time>
      </trkpt>
      <trkpt lat="44.47883" lon="4.06381">
        <ele>662.52</ele>
        <time>2016-12-09T11:02:05Z</time>
      </trkpt>
      <trkpt lat="44.47868" lon="4.06395">
        <ele>667.96</ele>
        <time>2016-12-09T11:02:35Z</time>
      </trkpt>
      <trkpt lat="44.4785" lon="4.06397">
        <ele>677.69</ele>
        <time>2016-12-09T11:02:59Z</time>
      </trkpt>
      <trkpt lat="44.47831" lon="4.06403">
        <ele>663.37</ele>
        <time>2016-12-09T11:05:25Z</time>
      </trkpt>
      <trkpt lat="44.47812" lon="4.06394">
        <ele>676.1</ele>
        <time>2016-12-09T11:07:42Z</time>
      </trkpt>
      <trkpt lat="44.47794" lon="4.06387">
        <ele>687.05</ele>
        <time>2016-12-09T11:08:18Z</time>
      </trkpt>
      <trkpt lat="44.47777" lon="4.06398">
        <ele>690.84</ele>
        <time>2016-12-09T11:09:49Z</time>
      </trkpt>
      <trkpt lat="44.47774" lon="4.06423">
        <ele>693.46</ele>
        <time>2016-12-09T11:10:15Z</time>
      </trkpt>
      <trkpt lat="44.47776" lon="4.06449">
        <ele>696.89</ele>
        <time>2016-12-09T11:10:48Z</time>
      </trkpt>
      <trkpt lat="44.47778" lon="4.06475">
        <ele>695.52</ele>
        <time>2016-12-09T11:11:19Z</time>
      </trkpt>
      <trkpt lat="44.47778" lon="4.06501">
        <ele>703.65</ele>
        <time>2016-12-09T11:12:00Z</time>
      </trkpt>
      <trkpt lat="44.47783" lon="4.06525">
        <ele>706.66</ele>
        <time>2016-12-09T11:12:36Z</time>
      </trkpt>
      <trkpt lat="44.47787" lon="4.06551">
        <ele>705.89</ele>
        <time>2016-12-09T11:13:02Z</time>
      </trkpt>
      <trkpt lat="44.47793" lon="4.06575">
        <ele>708.69</ele>
        <time>2016-12-09T11:13:17Z</time>
      </trkpt>
      <trkpt lat="44.478" lon="4.06601">
        <ele>719.63</ele>
        <time>2016-12-09T11:14:02Z</time>
      </trkpt>
      <trkpt lat="44.47808" lon="4.06623">
        <ele>720.29</ele>
        <time>2016-12-09T11:14:14Z</time>
      </trkpt>
      <trkpt lat="44.47821" lon="4.06642">
        <ele>722.5</ele>
        <time>2016-12-09T11:14:40Z</time>
      </trkpt>
      <trkpt lat="44.47836" lon="4.06659">
        <ele>721.27</ele>
        <time>2016-12-09T11:15:03Z</time>
      </trkpt>
      <trkpt lat="44.47838" lon="4.06684">
        <ele>725.65</ele>
        <time>2016-12-09T11:19:09Z</time>
      </trkpt>
      <trkpt lat="44.47833" lon="4.06709">
        <ele>720.73</ele>
        <time>2016-12-09T11:19:34Z</time>
      </trkpt>
      <trkpt lat="44.47829" lon="4.06735">
        <ele>716.76</ele>
        <time>2016-12-09T11:19:57Z</time>
      </trkpt>
      <trkpt lat="44.47818" lon="4.06756">
        <ele>715.69</ele>
        <time>2016-12-09T11:20:32Z</time>
      </trkpt>
      <trkpt lat="44.47812" lon="4.06781">
        <ele>719.41</ele>
        <time>2016-12-09T11:21:12Z</time>
      </trkpt>
      <trkpt lat="44.47795" lon="4.06789">
        <ele>719.06</ele>
        <time>2016-12-09T11:21:42Z</time>
      </trkpt>
      <trkpt lat="44.47788" lon="4.06813">
        <ele>719.29</ele>
        <time>2016-12-09T11:24:20Z</time>
      </trkpt>
      <trkpt lat="44.47774" lon="4.06831">
        <ele>729.25</ele>
        <time>2016-12-09T11:25:02Z</time>
      </trkpt>
      <trkpt lat="44.4776" lon="4.06847">
        <ele>730.76</ele>
        <time>2016-12-09T11:25:13Z</time>
      </trkpt>
      <trkpt lat="44.47752" lon="4.06869">
        <ele>734.89</ele>
        <time>2016-12-09T11:25:44Z</time>
      </trkpt>
      <trkpt lat="44.47747" lon="4.06895">
        <ele>734.26</ele>
        <time>2016-12-09T11:26:06Z</time>
      </trkpt>
      <trkpt lat="44.47738" lon="4.06918">
        <ele>734.89</ele>
        <time>2016-12-09T11:26:32Z</time>
      </trkpt>
      <trkpt lat="44.47741" lon="4.06946">
        <ele>741.53</ele>
        <time>2016-12-09T11:26:55Z</time>
      </trkpt>
      <trkpt lat="44.4774" lon="4.06972">
        <ele>742.25</ele>
        <time>2016-12-09T11:27:17Z</time>
      </trkpt>
      <trkpt lat="44.47738" lon="4.06999">
        <ele>743.49</ele>
        <time>2016-12-09T11:27:46Z</time>
      </trkpt>
      <trkpt lat="44.47739" lon="4.07024">
        <ele>741.7</ele>
        <time>2016-12-09T11:27:56Z</time>
      </trkpt>
      <trkpt lat="44.47732" lon="4.07048">
        <ele>747.5</ele>
        <time>2016-12-09T11:28:20Z</time>
      </trkpt>
      <trkpt lat="44.47728" lon="4.07072">
        <ele>750.69</ele>
        <time>2016-12-09T11:28:47Z</time>
      </trkpt>
      <trkpt lat="44.47747" lon="4.07078">
        <ele>750.55</ele>
        <time>2016-12-09T11:31:03Z</time>
      </trkpt>
      <trkpt lat="44.47765" lon="4.07087">
        <ele>749.89</ele>
        <time>2016-12-09T11:31:15Z</time>
      </trkpt>
      <trkpt lat="44.47784" lon="4.07091">
        <ele>760.25</ele>
        <time>2016-12-09T11:31:40Z</time>
      </trkpt>
      <trkpt lat="44.478" lon="4.07106">
        <ele>760.69</ele>
        <time>2016-12-09T11:32:27Z</time>
      </trkpt>
      <trkpt lat="44.47815" lon="4.07119">
        <ele>758.91</ele>
        <time>2016-12-09T11:32:40Z</time>
      </trkpt>
      <trkpt lat="44.47828" lon="4.07139">
        <ele>757.33</ele>
        <time>2016-12-09T11:33:01Z</time>
      </trkpt>
      <trkpt lat="44.47839" lon="4.07161">
        <ele>763.29</ele>
        <time>2016-12-09T11:33:19Z</time>
      </trkpt>
      <trkpt lat="44.4784" lon="4.07189">
        <ele>767.49</ele>
        <time>2016-12-09T11:34:02Z</time>
      </trkpt>
      <trkpt lat="44.47836" lon="4.07215">
        <ele>767.88</ele>
        <time>2016-12-09T11:34:10Z</time>
      </trkpt>
      <trkpt lat="44.47831" lon="4.0724">
        <ele>761.89</ele>
        <time>2016-12-09T11:34:26Z</time>
      </trkpt>
      <trkpt lat="44.47834" lon="4.07265">
        <ele>757.73</ele>
        <time>2016-12-09T11:34:50Z</time>
      </trkpt>
      <trkpt lat="44.47852" lon="4.07264">
        <ele>765.87</ele>
        <time>2016-12-09T11:36:15Z</time>
      </trkpt>
      <trkpt lat="44.4787" lon="4.07257">
        <ele>763.9</ele>
        <time>2016-12-09T11:37:58Z</time>
      </trkpt>
      <trkpt lat="44.47888" lon="4.07258">
        <ele>763.92</ele>
        <time>2016-12-09T11:39:14Z</time>
      </trkpt>
      <trkpt lat="44.47907" lon="4.07261">
        <ele>764.53</ele>
        <time>2016-12-09T11:39:28Z</time>
      </trkpt>
      <trkpt lat="44.47925" lon="4.07268">
        <ele>768.76</ele>
        <time>2016-12-09T12:25:25Z</time>
      </trkpt>
      <trkpt lat="44.47942" lon="4.0728">
        <ele>769.69</ele>
        <time>2016-12-09T12:25:40Z</time>
      </trkpt>
      <trkpt lat="44.4796" lon="4.07292">
        <ele>768.92</ele>
        <time>2016-12-09T12:25:57Z</time>
      </trkpt>
      <trkpt lat="44.47979" lon="4.07295">
        <ele>767.82</ele>
        <time>2016-12-09T12:26:47Z</time>
      </trkpt>
      <trkpt lat="44.47997" lon="4.07299">
        <ele>768.33</ele>
        <time>2016-12-09T12:27:12Z</time>
      </trkpt>
      <trkpt lat="44.48015" lon="4.07306">
        <ele>770.04</ele>
        <time>2016-12-09T12:27:24Z</time>
      </trkpt>
      <trkpt lat="44.48035" lon="4.07308">
        <ele>769.73</ele>
        <time>2016-12-09T12:27:37Z</time>
      </trkpt>
      <trkpt lat="44.48053" lon="4.07317">
        <ele>771.72</ele>
        <time>2016-12-09T12:28:16Z</time>
      </trkpt>
      <trkpt lat="44.48071" lon="4.07321">
        <ele>776.5</ele>
        <time>2016-12-09T12:28:26Z</time>
      </trkpt>
      <trkpt lat="44.4809" lon="4.07326">
        <ele>778.49</ele>
        <time>2016-12-09T12:28:36Z</time>
      </trkpt>
      <trkpt lat="44.48109" lon="4.07321">
        <ele>774.89</ele>
        <time>2016-12-09T12:28:52Z</time>
      </trkpt>
      <trkpt lat="44.48128" lon="4.07321">
        <ele>773.69</ele>
        <time>2016-12-09T12:29:08Z</time>
      </trkpt>
      <trkpt lat="44.48147" lon="4.0732">
        <ele>777.92</ele>
        <time>2016-12-09T12:29:28Z</time>
      </trkpt>
      <trkpt lat="44.48163" lon="4.07335">
        <ele>777.5</ele>
        <time>2016-12-09T12:29:40Z</time>
      </trkpt>
      <trkpt lat="44.48182" lon="4.07339">
        <ele>776.84</ele>
        <time>2016-12-09T12:29:58Z</time>
      </trkpt>
      <trkpt lat="44.48195" lon="4.0732">
        <ele>773.78</ele>
        <time>2016-12-09T12:30:05Z</time>
      </trkpt>
      <trkpt lat="44.48205" lon="4.07296">
        <ele>772.89</ele>
        <time>2016-12-09T12:30:11Z</time>
      </trkpt>
      <trkpt lat="44.48213" lon="4.07319">
        <ele>774.69</ele>
        <time>2016-12-09T12:30:23Z</time>
      </trkpt>
      <trkpt lat="44.48228" lon="4.07335">
        <ele>776.69</ele>
        <time>2016-12-09T12:30:35Z</time>
      </trkpt>
      <trkpt lat="44.48244" lon="4.07324">
        <ele>770.5</ele>
        <time>2016-12-09T12:30:50Z</time>
      </trkpt>
      <trkpt lat="44.48259" lon="4.0734">
        <ele>779.24</ele>
        <time>2016-12-09T12:31:04Z</time>
      </trkpt>
      <trkpt lat="44.48278" lon="4.07338">
        <ele>778.72</ele>
        <time>2016-12-09T12:31:23Z</time>
      </trkpt>
      <trkpt lat="44.48297" lon="4.07334">
        <ele>778.13</ele>
        <time>2016-12-09T12:31:43Z</time>
      </trkpt>
      <trkpt lat="44.48315" lon="4.07335">
        <ele>779.85</ele>
        <time>2016-12-09T12:31:58Z</time>
      </trkpt>
      <trkpt lat="44.48334" lon="4.07337">
        <ele>783.12</ele>
        <time>2016-12-09T12:32:17Z</time>
      </trkpt>
      <trkpt lat="44.48352" lon="4.07338">
        <ele>782.73</ele>
        <time>2016-12-09T12:32:35Z</time>
      </trkpt>
      <trkpt lat="44.48371" lon="4.07345">
        <ele>779.77</ele>
        <time>2016-12-09T12:32:50Z</time>
      </trkpt>
      <trkpt lat="44.48389" lon="4.07352">
        <ele>780.72</ele>
        <time>2016-12-09T12:33:04Z</time>
      </trkpt>
      <trkpt lat="44.48407" lon="4.0736">
        <ele>769.9</ele>
        <time>2016-12-09T12:33:21Z</time>
      </trkpt>
      <trkpt lat="44.48423" lon="4.07373">
        <ele>770.06</ele>
        <time>2016-12-09T12:33:38Z</time>
      </trkpt>
      <trkpt lat="44.48438" lon="4.07387">
        <ele>770.65</ele>
        <time>2016-12-09T12:33:49Z</time>
      </trkpt>
      <trkpt lat="44.48456" lon="4.07398">
        <ele>765.64</ele>
        <time>2016-12-09T12:34:03Z</time>
      </trkpt>
      <trkpt lat="44.48474" lon="4.07405">
        <ele>765.39</ele>
        <time>2016-12-09T12:34:19Z</time>
      </trkpt>
      <trkpt lat="44.48486" lon="4.07424">
        <ele>770.69</ele>
        <time>2016-12-09T12:34:36Z</time>
      </trkpt>
      <trkpt lat="44.48504" lon="4.07425">
        <ele>770.64</ele>
        <time>2016-12-09T12:35:07Z</time>
      </trkpt>
      <trkpt lat="44.48523" lon="4.07418">
        <ele>777.67</ele>
        <time>2016-12-09T12:35:33Z</time>
      </trkpt>
      <trkpt lat="44.48541" lon="4.07416">
        <ele>780.48</ele>
        <time>2016-12-09T12:35:48Z</time>
      </trkpt>
      <trkpt lat="44.4856" lon="4.07416">
        <ele>776.32</ele>
        <time>2016-12-09T12:36:02Z</time>
      </trkpt>
      <trkpt lat="44.48579" lon="4.07414">
        <ele>770.64</ele>
        <time>2016-12-09T12:36:19Z</time>
      </trkpt>
      <trkpt lat="44.48595" lon="4.07402">
        <ele>766.73</ele>
        <time>2016-12-09T12:36:34Z</time>
      </trkpt>
      <trkpt lat="44.4861" lon="4.07388">
        <ele>765.33</ele>
        <time>2016-12-09T12:37:14Z</time>
      </trkpt>
      <trkpt lat="44.48627" lon="4.07402">
        <ele>762.45</ele>
        <time>2016-12-09T12:37:26Z</time>
      </trkpt>
      <trkpt lat="44.48641" lon="4.0742">
        <ele>762.89</ele>
        <time>2016-12-09T12:37:43Z</time>
      </trkpt>
      <trkpt lat="44.48659" lon="4.07426">
        <ele>761.69</ele>
        <time>2016-12-09T12:38:03Z</time>
      </trkpt>
      <trkpt lat="44.48672" lon="4.07408">
        <ele>759.44</ele>
        <time>2016-12-09T12:38:16Z</time>
      </trkpt>
      <trkpt lat="44.48682" lon="4.07385">
        <ele>761.73</ele>
        <time>2016-12-09T12:38:39Z</time>
      </trkpt>
      <trkpt lat="44.48692" lon="4.07364">
        <ele>764.85</ele>
        <time>2016-12-09T12:38:59Z</time>
      </trkpt>
      <trkpt lat="44.48702" lon="4.07342">
        <ele>758.1</ele>
        <time>2016-12-09T12:39:12Z</time>
      </trkpt>
      <trkpt lat="44.48715" lon="4.07323">
        <ele>750.93</ele>
        <time>2016-12-09T12:39:34Z</time>
      </trkpt>
      <trkpt lat="44.4873" lon="4.07307">
        <ele>745.91</ele>
        <time>2016-12-09T12:39:42Z</time>
      </trkpt>
      <trkpt lat="44.48749" lon="4.073">
        <ele>746.3</ele>
        <time>2016-12-09T12:40:03Z</time>
      </trkpt>
      <trkpt lat="44.48768" lon="4.07302">
        <ele>750.69</ele>
        <time>2016-12-09T12:40:22Z</time>
      </trkpt>
      <trkpt lat="44.48782" lon="4.07318">
        <ele>760.88</ele>
        <time>2016-12-09T12:40:43Z</time>
      </trkpt>
      <trkpt lat="44.488" lon="4.07321">
        <ele>752.89</ele>
        <time>2016-12-09T12:41:00Z</time>
      </trkpt>
      <trkpt lat="44.48819" lon="4.07325">
        <ele>751.49</ele>
        <time>2016-12-09T12:41:12Z</time>
      </trkpt>
      <trkpt lat="44.48837" lon="4.07317">
        <ele>750.49</ele>
        <time>2016-12-09T12:42:26Z</time>
      </trkpt>
      <trkpt lat="44.48856" lon="4.07314">
        <ele>743.21</ele>
        <time>2016-12-09T12:43:04Z</time>
      </trkpt>
      <trkpt lat="44.48873" lon="4.07324">
        <ele>742.47</ele>
        <time>2016-12-09T12:43:18Z</time>
      </trkpt>
      <trkpt lat="44.48891" lon="4.07325">
        <ele>735.86</ele>
        <time>2016-12-09T12:43:57Z</time>
      </trkpt>
      <trkpt lat="44.48909" lon="4.07325">
        <ele>725.75</ele>
        <time>2016-12-09T12:44:22Z</time>
      </trkpt>
      <trkpt lat="44.48878" lon="4.07329">
        <ele>708.25</ele>
        <time>2016-12-09T12:47:04Z</time>
      </trkpt>
      <trkpt lat="44.48873" lon="4.07303">
        <ele>680.41</ele>
        <time>2016-12-09T12:47:11Z</time>
      </trkpt>
      <trkpt lat="44.48874" lon="4.07276">
        <ele>686.15</ele>
        <time>2016-12-09T12:47:22Z</time>
      </trkpt>
      <trkpt lat="44.48879" lon="4.07248">
        <ele>687.7</ele>
        <time>2016-12-09T12:47:29Z</time>
      </trkpt>
      <trkpt lat="44.48887" lon="4.07226">
        <ele>683.7</ele>
        <time>2016-12-09T12:47:40Z</time>
      </trkpt>
      <trkpt lat="44.48873" lon="4.07211">
        <ele>687.36</ele>
        <time>2016-12-09T12:48:06Z</time>
      </trkpt>
      <trkpt lat="44.48856" lon="4.072">
        <ele>687.7</ele>
        <time>2016-12-09T12:48:32Z</time>
      </trkpt>
      <trkpt lat="44.48848" lon="4.07178">
        <ele>692.49</ele>
        <time>2016-12-09T12:51:04Z</time>
      </trkpt>
      <trkpt lat="44.4883" lon="4.0717">
        <ele>687.9</ele>
        <time>2016-12-09T12:51:40Z</time>
      </trkpt>
      <trkpt lat="44.48815" lon="4.07155">
        <ele>693.15</ele>
        <time>2016-12-09T12:51:48Z</time>
      </trkpt>
      <trkpt lat="44.48803" lon="4.07136">
        <ele>694.66</ele>
        <time>2016-12-09T12:52:01Z</time>
      </trkpt>
      <trkpt lat="44.48793" lon="4.07113">
        <ele>693.2</ele>
        <time>2016-12-09T12:52:16Z</time>
      </trkpt>
      <trkpt lat="44.48781" lon="4.07094">
        <ele>690.46</ele>
        <time>2016-12-09T12:52:35Z</time>
      </trkpt>
      <trkpt lat="44.48772" lon="4.0707">
        <ele>694.65</ele>
        <time>2016-12-09T12:52:58Z</time>
      </trkpt>
      <trkpt lat="44.48756" lon="4.07054">
        <ele>693.54</ele>
        <time>2016-12-09T12:53:12Z</time>
      </trkpt>
      <trkpt lat="44.4874" lon="4.0704">
        <ele>691.36</ele>
        <time>2016-12-09T12:53:33Z</time>
      </trkpt>
      <trkpt lat="44.48741" lon="4.07014">
        <ele>682.88</ele>
        <time>2016-12-09T12:53:51Z</time>
      </trkpt>
      <trkpt lat="44.48737" lon="4.06989">
        <ele>684.85</ele>
        <time>2016-12-09T12:54:06Z</time>
      </trkpt>
      <trkpt lat="44.48745" lon="4.06965">
        <ele>684.7</ele>
        <time>2016-12-09T12:54:23Z</time>
      </trkpt>
      <trkpt lat="44.48746" lon="4.06938">
        <ele>675.94</ele>
        <time>2016-12-09T12:54:44Z</time>
      </trkpt>
      <trkpt lat="44.48745" lon="4.06912">
        <ele>674.72</ele>
        <time>2016-12-09T12:54:57Z</time>
      </trkpt>
      <trkpt lat="44.48742" lon="4.06886">
        <ele>670.62</ele>
        <time>2016-12-09T12:55:29Z</time>
      </trkpt>
      <trkpt lat="44.48736" lon="4.0686">
        <ele>670.09</ele>
        <time>2016-12-09T12:55:45Z</time>
      </trkpt>
      <trkpt lat="44.48733" lon="4.06833">
        <ele>669.9</ele>
        <time>2016-12-09T12:56:04Z</time>
      </trkpt>
      <trkpt lat="44.48727" lon="4.06807">
        <ele>678.82</ele>
        <time>2016-12-09T12:56:25Z</time>
      </trkpt>
      <trkpt lat="44.48717" lon="4.06785">
        <ele>680.7</ele>
        <time>2016-12-09T12:56:39Z</time>
      </trkpt>
      <trkpt lat="44.48707" lon="4.06762">
        <ele>683.69</ele>
        <time>2016-12-09T12:56:57Z</time>
      </trkpt>
      <trkpt lat="44.48703" lon="4.06737">
        <ele>681.88</ele>
        <time>2016-12-09T12:57:14Z</time>
      </trkpt>
      <trkpt lat="44.48697" lon="4.06713">
        <ele>683.49</ele>
        <time>2016-12-09T12:57:27Z</time>
      </trkpt>
      <trkpt lat="44.48693" lon="4.06688">
        <ele>684.66</ele>
        <time>2016-12-09T12:57:45Z</time>
      </trkpt>
      <trkpt lat="44.48687" lon="4.06662">
        <ele>681.87</ele>
        <time>2016-12-09T12:58:05Z</time>
      </trkpt>
      <trkpt lat="44.4868" lon="4.06639">
        <ele>684.64</ele>
        <time>2016-12-09T12:58:20Z</time>
      </trkpt>
      <trkpt lat="44.48684" lon="4.06614">
        <ele>689.69</ele>
        <time>2016-12-09T12:58:41Z</time>
      </trkpt>
      <trkpt lat="44.48697" lon="4.06596">
        <ele>686.66</ele>
        <time>2016-12-09T12:58:55Z</time>
      </trkpt>
      <trkpt lat="44.4871" lon="4.06613">
        <ele>686.89</ele>
        <time>2016-12-09T12:59:14Z</time>
      </trkpt>
      <trkpt lat="44.48727" lon="4.06625">
        <ele>685.65</ele>
        <time>2016-12-09T12:59:32Z</time>
      </trkpt>
      <trkpt lat="44.48745" lon="4.06615">
        <ele>685.86</ele>
        <time>2016-12-09T12:59:45Z</time>
      </trkpt>
      <trkpt lat="44.48756" lon="4.06595">
        <ele>685.66</ele>
        <time>2016-12-09T13:00:15Z</time>
      </trkpt>
      <trkpt lat="44.48767" lon="4.06573">
        <ele>675.86</ele>
        <time>2016-12-09T13:00:36Z</time>
      </trkpt>
      <trkpt lat="44.48765" lon="4.06547">
        <ele>672.09</ele>
        <time>2016-12-09T13:00:52Z</time>
      </trkpt>
      <trkpt lat="44.48769" lon="4.06522">
        <ele>670.72</ele>
        <time>2016-12-09T13:01:07Z</time>
      </trkpt>
      <trkpt lat="44.48768" lon="4.06496">
        <ele>668.9</ele>
        <time>2016-12-09T13:01:21Z</time>
      </trkpt>
      <trkpt lat="44.48769" lon="4.0647">
        <ele>668.69</ele>
        <time>2016-12-09T13:01:40Z</time>
      </trkpt>
      <trkpt lat="44.48764" lon="4.06444">
        <ele>669.73</ele>
        <time>2016-12-09T13:01:57Z</time>
      </trkpt>
      <trkpt lat="44.48758" lon="4.06419">
        <ele>666.91</ele>
        <time>2016-12-09T13:02:14Z</time>
      </trkpt>
      <trkpt lat="44.4876" lon="4.06393">
        <ele>660.97</ele>
        <time>2016-12-09T13:02:30Z</time>
      </trkpt>
      <trkpt lat="44.48757" lon="4.06367">
        <ele>664.65</ele>
        <time>2016-12-09T13:02:48Z</time>
      </trkpt>
      <trkpt lat="44.48756" lon="4.06342">
        <ele>670.74</ele>
        <time>2016-12-09T13:03:12Z</time>
      </trkpt>
      <trkpt lat="44.48754" lon="4.06316">
        <ele>669.85</ele>
        <time>2016-12-09T13:03:27Z</time>
      </trkpt>
      <trkpt lat="44.48739" lon="4.06302">
        <ele>666.32</ele>
        <time>2016-12-09T13:03:41Z</time>
      </trkpt>
      <trkpt lat="44.48723" lon="4.0629">
        <ele>664.49</ele>
        <time>2016-12-09T13:03:57Z</time>
      </trkpt>
      <trkpt lat="44.48706" lon="4.06274">
        <ele>663.76</ele>
        <time>2016-12-09T13:04:05Z</time>
      </trkpt>
      <trkpt lat="44.48691" lon="4.06261">
        <ele>663.82</ele>
        <time>2016-12-09T13:04:21Z</time>
      </trkpt>
      <trkpt lat="44.48682" lon="4.06238">
        <ele>659.68</ele>
        <time>2016-12-09T13:04:35Z</time>
      </trkpt>
      <trkpt lat="44.4868" lon="4.06211">
        <ele>653.69</ele>
        <time>2016-12-09T13:04:55Z</time>
      </trkpt>
      <trkpt lat="44.48681" lon="4.06186">
        <ele>655.68</ele>
        <time>2016-12-09T13:05:12Z</time>
      </trkpt>
      <trkpt lat="44.48677" lon="4.06161">
        <ele>650.74</ele>
        <time>2016-12-09T13:07:11Z</time>
      </trkpt>
      <trkpt lat="44.48684" lon="4.06137">
        <ele>646.69</ele>
        <time>2016-12-09T13:07:25Z</time>
      </trkpt>
      <trkpt lat="44.48699" lon="4.06121">
        <ele>642.69</ele>
        <time>2016-12-09T13:07:53Z</time>
      </trkpt>
      <trkpt lat="44.48689" lon="4.06099">
        <ele>634.94</ele>
        <time>2016-12-09T13:08:38Z</time>
      </trkpt>
      <trkpt lat="44.48674" lon="4.06087">
        <ele>632.89</ele>
        <time>2016-12-09T13:08:50Z</time>
      </trkpt>
      <trkpt lat="44.48673" lon="4.06061">
        <ele>625.78</ele>
        <time>2016-12-09T13:09:25Z</time>
      </trkpt>
      <trkpt lat="44.48666" lon="4.06033">
        <ele>625.5</ele>
        <time>2016-12-09T13:10:28Z</time>
      </trkpt>
      <trkpt lat="44.48668" lon="4.0606">
        <ele>619.05</ele>
        <time>2016-12-09T13:11:49Z</time>
      </trkpt>
      <trkpt lat="44.48655" lon="4.06077">
        <ele>619.93</ele>
        <time>2016-12-09T13:12:05Z</time>
      </trkpt>
      <trkpt lat="44.48648" lon="4.06101">
        <ele>625.48</ele>
        <time>2016-12-09T13:12:23Z</time>
      </trkpt>
      <trkpt lat="44.48663" lon="4.06086">
        <ele>623.81</ele>
        <time>2016-12-09T13:13:20Z</time>
      </trkpt>
      <trkpt lat="44.48671" lon="4.0611">
        <ele>625.94</ele>
        <time>2016-12-09T13:13:55Z</time>
      </trkpt>
      <trkpt lat="44.48663" lon="4.06134">
        <ele>621.09</ele>
        <time>2016-12-09T13:14:06Z</time>
      </trkpt>
      <trkpt lat="44.48662" lon="4.0616">
        <ele>629.8</ele>
        <time>2016-12-09T13:14:24Z</time>
      </trkpt>
      <trkpt lat="44.48656" lon="4.06184">
        <ele>630.49</ele>
        <time>2016-12-09T13:14:51Z</time>
      </trkpt>
      <trkpt lat="44.48651" lon="4.06208">
        <ele>621.49</ele>
        <time>2016-12-09T13:15:43Z</time>
      </trkpt>
      <trkpt lat="44.48644" lon="4.06232">
        <ele>622.89</ele>
        <time>2016-12-09T13:17:05Z</time>
      </trkpt>
      <trkpt lat="44.48652" lon="4.06207">
        <ele>624.3</ele>
        <time>2016-12-09T13:19:01Z</time>
      </trkpt>
      <trkpt lat="44.48655" lon="4.06182">
        <ele>620.74</ele>
        <time>2016-12-09T13:19:23Z</time>
      </trkpt>
      <trkpt lat="44.4866" lon="4.06157">
        <ele>628.49</ele>
        <time>2016-12-09T13:19:52Z</time>
      </trkpt>
      <trkpt lat="44.48659" lon="4.06132">
        <ele>636.68</ele>
        <time>2016-12-09T13:20:11Z</time>
      </trkpt>
      <trkpt lat="44.48668" lon="4.06109">
        <ele>630.7</ele>
        <time>2016-12-09T13:20:26Z</time>
      </trkpt>
      <trkpt lat="44.48686" lon="4.06108">
        <ele>630.7</ele>
        <time>2016-12-09T13:20:55Z</time>
      </trkpt>
      <trkpt lat="44.4869" lon="4.06134">
        <ele>634.69</ele>
        <time>2016-12-09T13:21:21Z</time>
      </trkpt>
      <trkpt lat="44.48688" lon="4.06159">
        <ele>635.69</ele>
        <time>2016-12-09T13:21:42Z</time>
      </trkpt>
      <trkpt lat="44.48706" lon="4.06159">
        <ele>647.84</ele>
        <time>2016-12-09T13:28:25Z</time>
      </trkpt>
      <trkpt lat="44.48724" lon="4.06166">
        <ele>650.54</ele>
        <time>2016-12-09T13:28:45Z</time>
      </trkpt>
      <trkpt lat="44.48742" lon="4.06176">
        <ele>659.66</ele>
        <time>2016-12-09T13:29:43Z</time>
      </trkpt>
      <trkpt lat="44.48761" lon="4.06179">
        <ele>659.68</ele>
        <time>2016-12-09T13:29:54Z</time>
      </trkpt>
      <trkpt lat="44.48777" lon="4.06193">
        <ele>651.92</ele>
        <time>2016-12-09T13:30:06Z</time>
      </trkpt>
      <trkpt lat="44.48796" lon="4.06199">
        <ele>658.65</ele>
        <time>2016-12-09T13:30:33Z</time>
      </trkpt>
      <trkpt lat="44.48813" lon="4.06209">
        <ele>658.44</ele>
        <time>2016-12-09T13:30:53Z</time>
      </trkpt>
      <trkpt lat="44.4883" lon="4.06214">
        <ele>663.69</ele>
        <time>2016-12-09T13:31:18Z</time>
      </trkpt>
      <trkpt lat="44.48847" lon="4.06224">
        <ele>660.89</ele>
        <time>2016-12-09T13:31:36Z</time>
      </trkpt>
      <trkpt lat="44.48865" lon="4.0623">
        <ele>656.69</ele>
        <time>2016-12-09T13:32:01Z</time>
      </trkpt>
      <trkpt lat="44.48883" lon="4.06234">
        <ele>659.89</ele>
        <time>2016-12-09T13:32:23Z</time>
      </trkpt>
      <trkpt lat="44.48899" lon="4.06246">
        <ele>660.05</ele>
        <time>2016-12-09T13:32:47Z</time>
      </trkpt>
      <trkpt lat="44.48916" lon="4.06254">
        <ele>657.32</ele>
        <time>2016-12-09T13:33:10Z</time>
      </trkpt>
      <trkpt lat="44.48935" lon="4.06252">
        <ele>661.52</ele>
        <time>2016-12-09T13:33:35Z</time>
      </trkpt>
      <trkpt lat="44.48953" lon="4.06254">
        <ele>659.08</ele>
        <time>2016-12-09T13:33:52Z</time>
      </trkpt>
      <trkpt lat="44.4897" lon="4.06266">
        <ele>651.89</ele>
        <time>2016-12-09T13:34:18Z</time>
      </trkpt>
      <trkpt lat="44.48986" lon="4.06278">
        <ele>651.48</ele>
        <time>2016-12-09T13:35:06Z</time>
      </trkpt>
      <trkpt lat="44.49005" lon="4.06275">
        <ele>650.61</ele>
        <time>2016-12-09T13:35:20Z</time>
      </trkpt>
      <trkpt lat="44.49022" lon="4.06281">
        <ele>647.24</ele>
        <time>2016-12-09T13:35:35Z</time>
      </trkpt>
      <trkpt lat="44.49032" lon="4.06304">
        <ele>644.69</ele>
        <time>2016-12-09T13:35:45Z</time>
      </trkpt>
      <trkpt lat="44.4905" lon="4.06298">
        <ele>645.66</ele>
        <time>2016-12-09T13:36:11Z</time>
      </trkpt>
      <trkpt lat="44.49067" lon="4.06293">
        <ele>644.81</ele>
        <time>2016-12-09T13:36:38Z</time>
      </trkpt>
      <trkpt lat="44.49087" lon="4.06296">
        <ele>641.38</ele>
        <time>2016-12-09T13:37:10Z</time>
      </trkpt>
      <trkpt lat="44.49105" lon="4.06294">
        <ele>642.54</ele>
        <time>2016-12-09T13:37:29Z</time>
      </trkpt>
      <trkpt lat="44.49124" lon="4.06292">
        <ele>639.88</ele>
        <time>2016-12-09T13:37:48Z</time>
      </trkpt>
      <trkpt lat="44.49143" lon="4.06289">
        <ele>638.73</ele>
        <time>2016-12-09T13:38:16Z</time>
      </trkpt>
      <trkpt lat="44.49161" lon="4.06285">
        <ele>634.72</ele>
        <time>2016-12-09T13:38:34Z</time>
      </trkpt>
      <trkpt lat="44.49179" lon="4.06289">
        <ele>638.85</ele>
        <time>2016-12-09T13:38:59Z</time>
      </trkpt>
      <trkpt lat="44.49196" lon="4.06297">
        <ele>637.65</ele>
        <time>2016-12-09T13:39:21Z</time>
      </trkpt>
      <trkpt lat="44.49213" lon="4.06307">
        <ele>642.46</ele>
        <time>2016-12-09T13:39:49Z</time>
      </trkpt>
      <trkpt lat="44.4923" lon="4.06318">
        <ele>643.66</ele>
        <time>2016-12-09T13:40:27Z</time>
      </trkpt>
      <trkpt lat="44.49248" lon="4.06313">
        <ele>643.52</ele>
        <time>2016-12-09T13:41:07Z</time>
      </trkpt>
      <trkpt lat="44.49263" lon="4.06298">
        <ele>643.64</ele>
        <time>2016-12-09T13:41:20Z</time>
      </trkpt>
      <trkpt lat="44.4928" lon="4.06284">
        <ele>639.59</ele>
        <time>2016-12-09T13:42:01Z</time>
      </trkpt>
      <trkpt lat="44.49297" lon="4.06275">
        <ele>641.68</ele>
        <time>2016-12-09T13:42:14Z</time>
      </trkpt>
      <trkpt lat="44.49316" lon="4.06274">
        <ele>645</ele>
        <time>2016-12-09T13:42:50Z</time>
      </trkpt>
      <trkpt lat="44.49331" lon="4.06256">
        <ele>646.58</ele>
        <time>2016-12-09T13:43:23Z</time>
      </trkpt>
      <trkpt lat="44.49347" lon="4.06244">
        <ele>648.89</ele>
        <time>2016-12-09T13:43:35Z</time>
      </trkpt>
      <trkpt lat="44.49366" lon="4.06243">
        <ele>638.94</ele>
        <time>2016-12-09T13:43:49Z</time>
      </trkpt>
      <trkpt lat="44.49378" lon="4.06223">
        <ele>636.7</ele>
        <time>2016-12-09T13:44:05Z</time>
      </trkpt>
      <trkpt lat="44.49397" lon="4.06221">
        <ele>630.9</ele>
        <time>2016-12-09T13:44:38Z</time>
      </trkpt>
      <trkpt lat="44.49413" lon="4.06206">
        <ele>629.66</ele>
        <time>2016-12-09T13:44:59Z</time>
      </trkpt>
      <trkpt lat="44.49431" lon="4.06213">
        <ele>642.45</ele>
        <time>2016-12-09T13:45:29Z</time>
      </trkpt>
      <trkpt lat="44.49448" lon="4.06223">
        <ele>639.94</ele>
        <time>2016-12-09T13:45:53Z</time>
      </trkpt>
      <trkpt lat="44.49466" lon="4.06225">
        <ele>638.03</ele>
        <time>2016-12-09T13:46:45Z</time>
      </trkpt>
      <trkpt lat="44.49484" lon="4.06222">
        <ele>634.69</ele>
        <time>2016-12-09T13:46:55Z</time>
      </trkpt>
      <trkpt lat="44.49502" lon="4.0623">
        <ele>635.56</ele>
        <time>2016-12-09T13:47:16Z</time>
      </trkpt>
      <trkpt lat="44.4952" lon="4.06235">
        <ele>635.53</ele>
        <time>2016-12-09T13:47:47Z</time>
      </trkpt>
      <trkpt lat="44.49539" lon="4.06236">
        <ele>633.74</ele>
        <time>2016-12-09T13:48:07Z</time>
      </trkpt>
      <trkpt lat="44.49553" lon="4.06217">
        <ele>638.84</ele>
        <time>2016-12-09T13:48:39Z</time>
      </trkpt>
      <trkpt lat="44.49569" lon="4.06201">
        <ele>635.93</ele>
        <time>2016-12-09T13:48:44Z</time>
      </trkpt>
      <trkpt lat="44.49583" lon="4.06217">
        <ele>639.85</ele>
        <time>2016-12-09T13:49:45Z</time>
      </trkpt>
      <trkpt lat="44.49601" lon="4.06221">
        <ele>635.5</ele>
        <time>2016-12-09T13:49:58Z</time>
      </trkpt>
      <trkpt lat="44.4962" lon="4.0622">
        <ele>627.76</ele>
        <time>2016-12-09T13:50:14Z</time>
      </trkpt>
      <trkpt lat="44.49628" lon="4.06196">
        <ele>622.53</ele>
        <time>2016-12-09T13:50:34Z</time>
      </trkpt>
      <trkpt lat="44.49623" lon="4.06171">
        <ele>622.66</ele>
        <time>2016-12-09T13:51:06Z</time>
      </trkpt>
      <trkpt lat="44.49638" lon="4.06155">
        <ele>625.65</ele>
        <time>2016-12-09T13:51:50Z</time>
      </trkpt>
      <trkpt lat="44.49657" lon="4.06157">
        <ele>618.09</ele>
        <time>2016-12-09T13:52:07Z</time>
      </trkpt>
      <trkpt lat="44.49675" lon="4.06153">
        <ele>619.3</ele>
        <time>2016-12-09T13:52:26Z</time>
      </trkpt>
      <trkpt lat="44.4969" lon="4.06138">
        <ele>625.26</ele>
        <time>2016-12-09T13:52:43Z</time>
      </trkpt>
      <trkpt lat="44.49704" lon="4.06157">
        <ele>625.5</ele>
        <time>2016-12-09T13:53:03Z</time>
      </trkpt>
      <trkpt lat="44.49723" lon="4.06164">
        <ele>625.68</ele>
        <time>2016-12-09T13:53:21Z</time>
      </trkpt>
      <trkpt lat="44.49742" lon="4.06162">
        <ele>626.12</ele>
        <time>2016-12-09T13:53:54Z</time>
      </trkpt>
      <trkpt lat="44.49759" lon="4.06172">
        <ele>620.89</ele>
        <time>2016-12-09T13:54:04Z</time>
      </trkpt>
      <trkpt lat="44.49777" lon="4.06169">
        <ele>619.9</ele>
        <time>2016-12-09T13:54:40Z</time>
      </trkpt>
      <trkpt lat="44.49767" lon="4.06143">
        <ele>634.24</ele>
        <time>2016-12-09T14:03:58Z</time>
      </trkpt>
      <trkpt lat="44.49752" lon="4.06129">
        <ele>629.24</ele>
        <time>2016-12-09T14:04:27Z</time>
      </trkpt>
      <trkpt lat="44.49736" lon="4.06116">
        <ele>636.23</ele>
        <time>2016-12-09T14:04:54Z</time>
      </trkpt>
      <trkpt lat="44.49719" lon="4.06107">
        <ele>640.69</ele>
        <time>2016-12-09T14:05:15Z</time>
      </trkpt>
      <trkpt lat="44.49706" lon="4.06088">
        <ele>640.13</ele>
        <time>2016-12-09T14:05:28Z</time>
      </trkpt>
      <trkpt lat="44.49704" lon="4.06062">
        <ele>638.85</ele>
        <time>2016-12-09T14:05:41Z</time>
      </trkpt>
      <trkpt lat="44.49697" lon="4.06037">
        <ele>637.56</ele>
        <time>2016-12-09T14:06:00Z</time>
      </trkpt>
      <trkpt lat="44.49682" lon="4.06022">
        <ele>634.69</ele>
        <time>2016-12-09T14:06:14Z</time>
      </trkpt>
      <trkpt lat="44.49679" lon="4.05996">
        <ele>631.92</ele>
        <time>2016-12-09T14:06:37Z</time>
      </trkpt>
      <trkpt lat="44.49662" lon="4.05986">
        <ele>635.12</ele>
        <time>2016-12-09T14:06:51Z</time>
      </trkpt>
      <trkpt lat="44.4965" lon="4.05965">
        <ele>630.9</ele>
        <time>2016-12-09T14:07:14Z</time>
      </trkpt>
      <trkpt lat="44.49635" lon="4.0595">
        <ele>629.74</ele>
        <time>2016-12-09T14:07:29Z</time>
      </trkpt>
      <trkpt lat="44.49622" lon="4.05931">
        <ele>626.49</ele>
        <time>2016-12-09T14:08:00Z</time>
      </trkpt>
      <trkpt lat="44.49621" lon="4.05906">
        <ele>621.65</ele>
        <time>2016-12-09T14:08:23Z</time>
      </trkpt>
      <trkpt lat="44.49624" lon="4.05881">
        <ele>620.66</ele>
        <time>2016-12-09T14:08:46Z</time>
      </trkpt>
      <trkpt lat="44.49633" lon="4.05859">
        <ele>617.9</ele>
        <time>2016-12-09T14:09:07Z</time>
      </trkpt>
      <trkpt lat="44.49645" lon="4.05838">
        <ele>617.89</ele>
        <time>2016-12-09T14:09:34Z</time>
      </trkpt>
      <trkpt lat="44.49634" lon="4.05814">
        <ele>618.68</ele>
        <time>2016-12-09T14:10:21Z</time>
      </trkpt>
      <trkpt lat="44.49621" lon="4.05795">
        <ele>614.86</ele>
        <time>2016-12-09T14:10:32Z</time>
      </trkpt>
      <trkpt lat="44.49604" lon="4.05786">
        <ele>613.73</ele>
        <time>2016-12-09T14:10:45Z</time>
      </trkpt>
      <trkpt lat="44.49586" lon="4.05776">
        <ele>609.88</ele>
        <time>2016-12-09T14:11:06Z</time>
      </trkpt>
      <trkpt lat="44.49569" lon="4.05784">
        <ele>613.76</ele>
        <time>2016-12-09T14:11:35Z</time>
      </trkpt>
      <trkpt lat="44.49551" lon="4.05779">
        <ele>612.86</ele>
        <time>2016-12-09T14:11:48Z</time>
      </trkpt>
      <trkpt lat="44.4954" lon="4.05758">
        <ele>611.48</ele>
        <time>2016-12-09T14:12:10Z</time>
      </trkpt>
      <trkpt lat="44.49523" lon="4.05747">
        <ele>610.57</ele>
        <time>2016-12-09T14:12:30Z</time>
      </trkpt>
      <trkpt lat="44.49505" lon="4.05747">
        <ele>611.73</ele>
        <time>2016-12-09T14:12:46Z</time>
      </trkpt>
      <trkpt lat="44.49492" lon="4.05727">
        <ele>610.71</ele>
        <time>2016-12-09T14:13:20Z</time>
      </trkpt>
      <trkpt lat="44.49475" lon="4.05718">
        <ele>608.84</ele>
        <time>2016-12-09T14:13:33Z</time>
      </trkpt>
      <trkpt lat="44.49456" lon="4.05707">
        <ele>608.13</ele>
        <time>2016-12-09T14:14:20Z</time>
      </trkpt>
      <trkpt lat="44.49437" lon="4.05699">
        <ele>605.39</ele>
        <time>2016-12-09T14:14:31Z</time>
      </trkpt>
      <trkpt lat="44.49419" lon="4.05698">
        <ele>603.86</ele>
        <time>2016-12-09T14:14:44Z</time>
      </trkpt>
      <trkpt lat="44.49401" lon="4.05711">
        <ele>606.89</ele>
        <time>2016-12-09T14:15:00Z</time>
      </trkpt>
      <trkpt lat="44.49385" lon="4.05697">
        <ele>601.63</ele>
        <time>2016-12-09T14:15:28Z</time>
      </trkpt>
      <trkpt lat="44.49366" lon="4.05698">
        <ele>599.9</ele>
        <time>2016-12-09T14:15:47Z</time>
      </trkpt>
      <trkpt lat="44.49348" lon="4.05701">
        <ele>599.68</ele>
        <time>2016-12-09T14:16:00Z</time>
      </trkpt>
      <trkpt lat="44.49333" lon="4.05685">
        <ele>594.32</ele>
        <time>2016-12-09T14:16:37Z</time>
      </trkpt>
      <trkpt lat="44.49316" lon="4.05674">
        <ele>591.68</ele>
        <time>2016-12-09T14:16:49Z</time>
      </trkpt>
      <trkpt lat="44.49299" lon="4.05667">
        <ele>593.48</ele>
        <time>2016-12-09T14:17:07Z</time>
      </trkpt>
      <trkpt lat="44.49281" lon="4.0566">
        <ele>590.71</ele>
        <time>2016-12-09T14:17:36Z</time>
      </trkpt>
      <trkpt lat="44.49262" lon="4.05656">
        <ele>592.42</ele>
        <time>2016-12-09T14:17:49Z</time>
      </trkpt>
      <trkpt lat="44.49246" lon="4.05642">
        <ele>584.9</ele>
        <time>2016-12-09T14:18:12Z</time>
      </trkpt>
      <trkpt lat="44.49245" lon="4.05616">
        <ele>585.77</ele>
        <time>2016-12-09T14:19:05Z</time>
      </trkpt>
      <trkpt lat="44.49261" lon="4.05601">
        <ele>584.85</ele>
        <time>2016-12-09T14:19:24Z</time>
      </trkpt>
      <trkpt lat="44.49277" lon="4.05588">
        <ele>578.25</ele>
        <time>2016-12-09T14:19:37Z</time>
      </trkpt>
      <trkpt lat="44.49294" lon="4.05578">
        <ele>587.45</ele>
        <time>2016-12-09T14:19:57Z</time>
      </trkpt>
      <trkpt lat="44.49311" lon="4.05568">
        <ele>582.77</ele>
        <time>2016-12-09T14:20:40Z</time>
      </trkpt>
      <trkpt lat="44.49323" lon="4.05549">
        <ele>583.89</ele>
        <time>2016-12-09T14:20:51Z</time>
      </trkpt>
      <trkpt lat="44.49319" lon="4.05521">
        <ele>579.68</ele>
        <time>2016-12-09T14:21:20Z</time>
      </trkpt>
      <trkpt lat="44.49313" lon="4.05496">
        <ele>580.69</ele>
        <time>2016-12-09T14:21:33Z</time>
      </trkpt>
      <trkpt lat="44.49317" lon="4.05471">
        <ele>576.69</ele>
        <time>2016-12-09T14:22:10Z</time>
      </trkpt>
      <trkpt lat="44.49334" lon="4.0546">
        <ele>574.74</ele>
        <time>2016-12-09T14:22:30Z</time>
      </trkpt>
      <trkpt lat="44.49347" lon="4.05443">
        <ele>579.65</ele>
        <time>2016-12-09T14:24:37Z</time>
      </trkpt>
      <trkpt lat="44.49365" lon="4.0545">
        <ele>574.69</ele>
        <time>2016-12-09T14:24:57Z</time>
      </trkpt>
      <trkpt lat="44.49377" lon="4.05469">
        <ele>571.69</ele>
        <time>2016-12-09T14:25:19Z</time>
      </trkpt>
      <trkpt lat="44.49393" lon="4.05488">
        <ele>574.13</ele>
        <time>2016-12-09T14:26:14Z</time>
      </trkpt>
      <trkpt lat="44.49409" lon="4.05501">
        <ele>576.33</ele>
        <time>2016-12-09T14:26:22Z</time>
      </trkpt>
      <trkpt lat="44.49425" lon="4.05515">
        <ele>570.73</ele>
        <time>2016-12-09T14:26:47Z</time>
      </trkpt>
      <trkpt lat="44.49441" lon="4.05527">
        <ele>567.93</ele>
        <time>2016-12-09T14:27:03Z</time>
      </trkpt>
      <trkpt lat="44.49459" lon="4.05529">
        <ele>569.65</ele>
        <time>2016-12-09T14:27:21Z</time>
      </trkpt>
      <trkpt lat="44.49475" lon="4.05516">
        <ele>569.57</ele>
        <time>2016-12-09T14:27:56Z</time>
      </trkpt>
      <trkpt lat="44.49489" lon="4.05496">
        <ele>571.49</ele>
        <time>2016-12-09T14:28:17Z</time>
      </trkpt>
      <trkpt lat="44.49502" lon="4.05477">
        <ele>567.67</ele>
        <time>2016-12-09T14:28:46Z</time>
      </trkpt>
      <trkpt lat="44.49516" lon="4.05458">
        <ele>562.85</ele>
        <time>2016-12-09T14:29:06Z</time>
      </trkpt>
      <trkpt lat="44.49524" lon="4.05434">
        <ele>564.65</ele>
        <time>2016-12-09T14:29:18Z</time>
      </trkpt>
      <trkpt lat="44.49541" lon="4.05424">
        <ele>559.68</ele>
        <time>2016-12-09T14:29:41Z</time>
      </trkpt>
      <trkpt lat="44.49559" lon="4.05418">
        <ele>557.62</ele>
        <time>2016-12-09T14:30:04Z</time>
      </trkpt>
      <trkpt lat="44.49577" lon="4.05413">
        <ele>560.29</ele>
        <time>2016-12-09T14:31:07Z</time>
      </trkpt>
      <trkpt lat="44.49563" lon="4.05397">
        <ele>564.1</ele>
        <time>2016-12-09T14:31:19Z</time>
      </trkpt>
      <trkpt lat="44.49564" lon="4.05371">
        <ele>559.83</ele>
        <time>2016-12-09T14:31:40Z</time>
      </trkpt>
      <trkpt lat="44.49555" lon="4.05349">
        <ele>555.5</ele>
        <time>2016-12-09T14:31:57Z</time>
      </trkpt>
      <trkpt lat="44.49539" lon="4.05338">
        <ele>541.92</ele>
        <time>2016-12-09T14:32:16Z</time>
      </trkpt>
      <trkpt lat="44.4952" lon="4.05339">
        <ele>546.65</ele>
        <time>2016-12-09T14:33:01Z</time>
      </trkpt>
      <trkpt lat="44.49508" lon="4.0532">
        <ele>544.17</ele>
        <time>2016-12-09T14:33:38Z</time>
      </trkpt>
      <trkpt lat="44.49501" lon="4.05297">
        <ele>542.48</ele>
        <time>2016-12-09T14:33:59Z</time>
      </trkpt>
      <trkpt lat="44.4949" lon="4.05276">
        <ele>542.9</ele>
        <time>2016-12-09T14:34:14Z</time>
      </trkpt>
      <trkpt lat="44.49475" lon="4.05261">
        <ele>540.89</ele>
        <time>2016-12-09T14:34:35Z</time>
      </trkpt>
      <trkpt lat="44.49472" lon="4.05235">
        <ele>537.29</ele>
        <time>2016-12-09T14:34:51Z</time>
      </trkpt>
      <trkpt lat="44.49464" lon="4.05211">
        <ele>543.48</ele>
        <time>2016-12-09T14:35:06Z</time>
      </trkpt>
      <trkpt lat="44.49454" lon="4.0519">
        <ele>542.71</ele>
        <time>2016-12-09T14:35:26Z</time>
      </trkpt>
      <trkpt lat="44.49436" lon="4.05181">
        <ele>542.85</ele>
        <time>2016-12-09T14:35:42Z</time>
      </trkpt>
      <trkpt lat="44.49419" lon="4.05173">
        <ele>537.5</ele>
        <time>2016-12-09T14:35:59Z</time>
      </trkpt>
      <trkpt lat="44.49409" lon="4.05151">
        <ele>543.62</ele>
        <time>2016-12-09T14:38:50Z</time>
      </trkpt>
      <trkpt lat="44.49391" lon="4.05141">
        <ele>541.05</ele>
        <time>2016-12-09T14:39:29Z</time>
      </trkpt>
      <trkpt lat="44.49373" lon="4.0514">
        <ele>539.7</ele>
        <time>2016-12-09T14:39:55Z</time>
      </trkpt>
      <trkpt lat="44.49355" lon="4.05133">
        <ele>537.65</ele>
        <time>2016-12-09T14:40:42Z</time>
      </trkpt>
      <trkpt lat="44.49351" lon="4.05108">
        <ele>543.49</ele>
        <time>2016-12-09T14:41:09Z</time>
      </trkpt>
      <trkpt lat="44.49333" lon="4.05103">
        <ele>550.87</ele>
        <time>2016-12-09T14:42:07Z</time>
      </trkpt>
      <trkpt lat="44.49315" lon="4.05098">
        <ele>545.93</ele>
        <time>2016-12-09T14:42:32Z</time>
      </trkpt>
      <trkpt lat="44.49302" lon="4.05076">
        <ele>536.09</ele>
        <time>2016-12-09T14:49:22Z</time>
      </trkpt>
      <trkpt lat="44.49287" lon="4.05059">
        <ele>522.94</ele>
        <time>2016-12-09T14:56:26Z</time>
      </trkpt>
      <trkpt lat="44.49292" lon="4.05035">
        <ele>524.69</ele>
        <time>2016-12-09T14:56:42Z</time>
      </trkpt>
      <trkpt lat="44.49285" lon="4.05011">
        <ele>527.48</ele>
        <time>2016-12-09T14:57:43Z</time>
      </trkpt>
      <trkpt lat="44.49306" lon="4.05007">
        <ele>511.69</ele>
        <time>2016-12-09T14:58:41Z</time>
      </trkpt>
      <trkpt lat="44.49324" lon="4.05004">
        <ele>502.1</ele>
        <time>2016-12-09T14:58:48Z</time>
      </trkpt>
      <trkpt lat="44.49345" lon="4.05003">
        <ele>497.71</ele>
        <time>2016-12-09T14:59:04Z</time>
      </trkpt>
      <trkpt lat="44.49361" lon="4.04992">
        <ele>496.65</ele>
        <time>2016-12-09T14:59:20Z</time>
      </trkpt>
      <trkpt lat="44.49375" lon="4.04974">
        <ele>493.03</ele>
        <time>2016-12-09T15:00:34Z</time>
      </trkpt>
      <trkpt lat="44.49368" lon="4.0495">
        <ele>485.52</ele>
        <time>2016-12-09T15:01:00Z</time>
      </trkpt>
      <trkpt lat="44.49383" lon="4.04934">
        <ele>487.64</ele>
        <time>2016-12-09T15:01:29Z</time>
      </trkpt>
      <trkpt lat="44.494" lon="4.0494">
        <ele>477.69</ele>
        <time>2016-12-09T15:01:58Z</time>
      </trkpt>
      <trkpt lat="44.49412" lon="4.0492">
        <ele>480.4</ele>
        <time>2016-12-09T15:02:50Z</time>
      </trkpt>
      <trkpt lat="44.49414" lon="4.04894">
        <ele>489.43</ele>
        <time>2016-12-09T15:03:01Z</time>
      </trkpt>
      <trkpt lat="44.49407" lon="4.0487">
        <ele>486.53</ele>
        <time>2016-12-09T15:03:19Z</time>
      </trkpt>
      <trkpt lat="44.49412" lon="4.04845">
        <ele>485.73</ele>
        <time>2016-12-09T15:03:38Z</time>
      </trkpt>
      <trkpt lat="44.49418" lon="4.0482">
        <ele>484.48</ele>
        <time>2016-12-09T15:04:20Z</time>
      </trkpt>
      <trkpt lat="44.49417" lon="4.04795">
        <ele>487.64</ele>
        <time>2016-12-09T15:04:30Z</time>
      </trkpt>
      <trkpt lat="44.49422" lon="4.04768">
        <ele>484.77</ele>
        <time>2016-12-09T15:04:39Z</time>
      </trkpt>
      <trkpt lat="44.4942" lon="4.04742">
        <ele>485.66</ele>
        <time>2016-12-09T15:05:02Z</time>
      </trkpt>
      <trkpt lat="44.49414" lon="4.04717">
        <ele>486.49</ele>
        <time>2016-12-09T15:05:55Z</time>
      </trkpt>
      <trkpt lat="44.49408" lon="4.04693">
        <ele>483.16</ele>
        <time>2016-12-09T15:06:01Z</time>
      </trkpt>
      <trkpt lat="44.49408" lon="4.04667">
        <ele>482.88</ele>
        <time>2016-12-09T15:06:08Z</time>
      </trkpt>
      <trkpt lat="44.49393" lon="4.04652">
        <ele>486.28</ele>
        <time>2016-12-09T15:06:47Z</time>
      </trkpt>
      <trkpt lat="44.49375" lon="4.04639">
        <ele>493.89</ele>
        <time>2016-12-09T15:07:14Z</time>
      </trkpt>
      <trkpt lat="44.49365" lon="4.04616">
        <ele>483.88</ele>
        <time>2016-12-09T15:07:21Z</time>
      </trkpt>
      <trkpt lat="44.49356" lon="4.04593">
        <ele>485.58</ele>
        <time>2016-12-09T15:07:33Z</time>
      </trkpt>
      <trkpt lat="44.49339" lon="4.04584">
        <ele>489.48</ele>
        <time>2016-12-09T15:07:46Z</time>
      </trkpt>
      <trkpt lat="44.49343" lon="4.04559">
        <ele>488.45</ele>
        <time>2016-12-09T15:07:57Z</time>
      </trkpt>
      <trkpt lat="44.49354" lon="4.04538">
        <ele>485.08</ele>
        <time>2016-12-09T15:08:14Z</time>
      </trkpt>
      <trkpt lat="44.49371" lon="4.04524">
        <ele>483.57</ele>
        <time>2016-12-09T15:08:29Z</time>
      </trkpt>
      <trkpt lat="44.49386" lon="4.04509">
        <ele>488.64</ele>
        <time>2016-12-09T15:08:47Z</time>
      </trkpt>
      <trkpt lat="44.49401" lon="4.04494">
        <ele>483.69</ele>
        <time>2016-12-09T15:09:18Z</time>
      </trkpt>
      <trkpt lat="44.49412" lon="4.04472">
        <ele>508.69</ele>
        <time>2016-12-09T15:09:36Z</time>
      </trkpt>
      <trkpt lat="44.49421" lon="4.04448">
        <ele>494.95</ele>
        <time>2016-12-09T15:09:45Z</time>
      </trkpt>
    </trkseg>
  </trk>
</gpx>